sensor_id;sensor_type;location;lat;lon;timestamp;pressure;altitude;pressure_sealevel;temperature;humidity
37132;BME280;23035;50.032;21.978;2022-11-20T00:01:04;65113.63;;;-0.51;100.00
37132;BME280;23035;50.032;21.978;2022-11-20T00:06:12;65184.09;;;0.11;100.00
37132;BME280;23035;50.032;21.978;2022-11-20T00:11:20;65148.56;;;-0.20;100.00
37132;BME280;23035;50.032;21.978;2022-11-20T00:16:27;65152.84;;;-0.16;100.00
37132;BME280;23035;50.032;21.978;2022-11-20T00:21:34;65076.66;;;-0.94;100.00
37132;BME280;23035;50.032;21.978;2022-11-20T00:26:39;65119.38;;;-0.48;100.00
37132;BME280;23035;50.032;21.978;2022-11-20T00:31:43;65109.28;;;-0.58;100.00
37132;BME280;23035;50.032;21.978;2022-11-20T00:36:49;64894.59;;;-2.69;100.00
37132;BME280;23035;50.032;21.978;2022-11-20T00:41:54;65001.34;;;-1.64;100.00
37132;BME280;23035;50.032;21.978;2022-11-20T00:46:59;65055.81;;;-1.04;100.00
37132;BME280;23035;50.032;21.978;2022-11-20T00:52:05;65054.66;;;-1.08;100.00
37132;BME280;23035;50.032;21.978;2022-11-20T00:57:11;65069.97;;;-0.96;100.00
37132;BME280;23035;50.032;21.978;2022-11-20T01:02:17;64889.94;;;-2.71;100.00
37132;BME280;23035;50.032;21.978;2022-11-20T01:07:23;64900.09;;;-2.58;100.00
37132;BME280;23035;50.032;21.978;2022-11-20T01:12:28;64935.53;;;-2.27;100.00
37132;BME280;23035;50.032;21.978;2022-11-20T01:17:33;64917.19;;;-2.40;100.00
37132;BME280;23035;50.032;21.978;2022-11-20T01:22:39;64828.53;;;-3.27;100.00
37132;BME280;23035;50.032;21.978;2022-11-20T01:27:43;64969.50;;;-1.94;100.00
37132;BME280;23035;50.032;21.978;2022-11-20T01:32:48;65012.06;;;-1.51;100.00
37132;BME280;23035;50.032;21.978;2022-11-20T01:37:54;64963.13;;;-2.00;100.00
37132;BME280;23035;50.032;21.978;2022-11-20T01:43:09;64986.06;;;-1.76;100.00
37132;BME280;23035;50.032;21.978;2022-11-20T01:48:25;65019.94;;;-1.46;100.00
37132;BME280;23035;50.032;21.978;2022-11-20T01:53:36;64894.16;;;-2.67;100.00
37132;BME280;23035;50.032;21.978;2022-11-20T01:58:45;64796.75;;;-3.58;100.00
37132;BME280;23035;50.032;21.978;2022-11-20T02:03:52;64755.84;;;-3.99;100.00
37132;BME280;23035;50.032;21.978;2022-11-20T02:08:58;64819.53;;;-3.36;100.00
37132;BME280;23035;50.032;21.978;2022-11-20T02:14:02;64939.78;;;-2.23;100.00
37132;BME280;23035;50.032;21.978;2022-11-20T02:19:19;65024.28;;;-1.39;100.00
37132;BME280;23035;50.032;21.978;2022-11-20T02:24:30;65054.66;;;-1.08;100.00
37132;BME280;23035;50.032;21.978;2022-11-20T02:29:40;65099.06;;;-0.70;100.00
37132;BME280;23035;50.032;21.978;2022-11-20T02:34:52;65110.75;;;-0.59;100.00
37132;BME280;23035;50.032;21.978;2022-11-20T02:39:58;65078.47;;;-0.88;100.00
37132;BME280;23035;50.032;21.978;2022-11-20T02:45:06;65094.81;;;-0.74;100.00
37132;BME280;23035;50.032;21.978;2022-11-20T02:50:10;65136.78;;;-0.34;100.00
37132;BME280;23035;50.032;21.978;2022-11-20T02:55:22;65073.56;;;-0.95;100.00
37132;BME280;23035;50.032;21.978;2022-11-20T03:00:28;65067.06;;;-1.03;100.00
37132;BME280;23035;50.032;21.978;2022-11-20T03:05:36;65033.41;;;-1.28;100.00
37132;BME280;23035;50.032;21.978;2022-11-20T03:10:48;65091.09;;;-0.78;100.00
37132;BME280;23035;50.032;21.978;2022-11-20T03:15:53;64927.81;;;-2.29;100.00
37132;BME280;23035;50.032;21.978;2022-11-20T03:20:59;65014.72;;;-1.49;100.00
37132;BME280;23035;50.032;21.978;2022-11-20T03:26:14;65044.69;;;-1.15;100.00
37132;BME280;23035;50.032;21.978;2022-11-20T03:31:24;65033.72;;;-1.33;100.00
37132;BME280;23035;50.032;21.978;2022-11-20T03:36:30;64901.69;;;-2.57;100.00
37132;BME280;23035;50.032;21.978;2022-11-20T03:41:43;65016.63;;;-1.52;100.00
37132;BME280;23035;50.032;21.978;2022-11-20T03:46:55;64891.50;;;-2.69;100.00
37132;BME280;23035;50.032;21.978;2022-11-20T03:52:00;64811.88;;;-3.48;100.00
37132;BME280;23035;50.032;21.978;2022-11-20T03:57:20;64837.97;;;-3.21;100.00
37132;BME280;23035;50.032;21.978;2022-11-20T04:02:28;64973.22;;;-1.91;100.00
37132;BME280;23035;50.032;21.978;2022-11-20T04:07:33;65002.41;;;-1.63;100.00
37132;BME280;23035;50.032;21.978;2022-11-20T04:12:39;64993.91;;;-1.71;100.00
37132;BME280;23035;50.032;21.978;2022-11-20T04:17:43;65001.97;;;-1.61;100.00
37132;BME280;23035;50.032;21.978;2022-11-20T04:22:48;64994.97;;;-1.70;100.00
37132;BME280;23035;50.032;21.978;2022-11-20T04:27:53;65000.28;;;-1.65;100.00
37132;BME280;23035;50.032;21.978;2022-11-20T04:33:01;64967.38;;;-1.96;100.00
37132;BME280;23035;50.032;21.978;2022-11-20T04:38:05;64939.16;;;-2.26;100.00
37132;BME280;23035;50.032;21.978;2022-11-20T04:43:12;64796.31;;;-3.56;100.00
37132;BME280;23035;50.032;21.978;2022-11-20T04:48:19;64898.41;;;-2.63;100.00
37132;BME280;23035;50.032;21.978;2022-11-20T04:53:24;64923.22;;;-2.41;100.00
37132;BME280;23035;50.032;21.978;2022-11-20T04:58:30;64967.59;;;-1.91;100.00
37132;BME280;23035;50.032;21.978;2022-11-20T05:03:36;64933.41;;;-2.29;100.00
37132;BME280;23035;50.032;21.978;2022-11-20T05:08:45;64983.72;;;-1.83;100.00
37132;BME280;23035;50.032;21.978;2022-11-20T05:13:51;64947.75;;;-2.15;100.00
37132;BME280;23035;50.032;21.978;2022-11-20T05:18:56;64859.59;;;-3.02;100.00
37132;BME280;23035;50.032;21.978;2022-11-20T05:24:01;64798.31;;;-3.56;100.00
37132;BME280;23035;50.032;21.978;2022-11-20T05:29:10;64883.69;;;-2.74;100.00
37132;BME280;23035;50.032;21.978;2022-11-20T05:34:16;64817.41;;;-3.38;100.00
37132;BME280;23035;50.032;21.978;2022-11-20T05:39:20;64815.72;;;-3.42;100.00
37132;BME280;23035;50.032;21.978;2022-11-20T05:44:28;64806.69;;;-3.51;100.00
37132;BME280;23035;50.032;21.978;2022-11-20T05:49:32;64768.03;;;-3.88;100.00
37132;BME280;23035;50.032;21.978;2022-11-20T05:54:37;64742.81;;;-4.07;100.00
37132;BME280;23035;50.032;21.978;2022-11-20T05:59:43;64863.00;;;-2.94;100.00
37132;BME280;23035;50.032;21.978;2022-11-20T06:04:47;64945.50;;;-2.20;100.00
37132;BME280;23035;50.032;21.978;2022-11-20T06:09:52;64987.13;;;-1.75;100.00
37132;BME280;23035;50.032;21.978;2022-11-20T06:14:58;65023.66;;;-1.42;100.00
37132;BME280;23035;50.032;21.978;2022-11-20T06:20:03;64967.78;;;-1.98;100.00
37132;BME280;23035;50.032;21.978;2022-11-20T06:25:08;64966.31;;;-1.97;100.00
37132;BME280;23035;50.032;21.978;2022-11-20T06:30:15;65065.16;;;-1.00;100.00
37132;BME280;23035;50.032;21.978;2022-11-20T06:35:20;65059.97;;;-1.03;100.00
37132;BME280;23035;50.032;21.978;2022-11-20T06:40:25;65031.63;;;-1.35;100.00
37132;BME280;23035;50.032;21.978;2022-11-20T06:45:32;65070.38;;;-0.98;100.00
37132;BME280;23035;50.032;21.978;2022-11-20T06:50:38;65052.75;;;-1.17;100.00
37132;BME280;23035;50.032;21.978;2022-11-20T06:55:45;65097.03;;;-0.70;100.00
37132;BME280;23035;50.032;21.978;2022-11-20T07:00:53;65082.16;;;-0.84;100.00
37132;BME280;23035;50.032;21.978;2022-11-20T07:05:58;65088.03;;;-0.78;100.00
37132;BME280;23035;50.032;21.978;2022-11-20T07:11:06;65191.75;;;0.23;100.00
37132;BME280;23035;50.032;21.978;2022-11-20T07:16:12;65161.88;;;-0.08;100.00
37132;BME280;23035;50.032;21.978;2022-11-20T07:21:16;65182.19;;;0.14;100.00
37132;BME280;23035;50.032;21.978;2022-11-20T07:26:20;65171.97;;;0.02;100.00
37132;BME280;23035;50.032;21.978;2022-11-20T07:31:26;65281.66;;;1.09;100.00
37132;BME280;23035;50.032;21.978;2022-11-20T07:36:40;65270.25;;;0.94;100.00
37132;BME280;23035;50.032;21.978;2022-11-20T07:41:44;65209.84;;;0.41;100.00
37132;BME280;23035;50.032;21.978;2022-11-20T07:46:54;65274.50;;;0.98;100.00
37132;BME280;23035;50.032;21.978;2022-11-20T07:51:58;65242.69;;;0.70;100.00
37132;BME280;23035;50.032;21.978;2022-11-20T07:57:07;65298.66;;;1.26;100.00
37132;BME280;23035;50.032;21.978;2022-11-20T08:02:13;65218.56;;;0.42;100.00
37132;BME280;23035;50.032;21.978;2022-11-20T08:07:17;65083.75;;;-0.82;100.00
37132;BME280;23035;50.032;21.978;2022-11-20T08:12:22;65166.66;;;-0.03;100.00
37132;BME280;23035;50.032;21.978;2022-11-20T08:17:45;65185.38;;;0.17;100.00
37132;BME280;23035;50.032;21.978;2022-11-20T08:23:12;65242.28;;;0.72;100.00
37132;BME280;23035;50.032;21.978;2022-11-20T08:28:19;65258.13;;;0.84;100.00
37132;BME280;23035;50.032;21.978;2022-11-20T08:33:26;65194.31;;;0.23;100.00
37132;BME280;23035;50.032;21.978;2022-11-20T08:38:32;65313.03;;;1.39;100.00
37132;BME280;23035;50.032;21.978;2022-11-20T08:43:37;65269.19;;;0.93;100.00
37132;BME280;23035;50.032;21.978;2022-11-20T08:48:44;65316.56;;;1.38;100.00
37132;BME280;23035;50.032;21.978;2022-11-20T08:53:49;65328.81;;;1.50;100.00
37132;BME280;23035;50.032;21.978;2022-11-20T08:58:54;65410.81;;;2.28;100.00
37132;BME280;23035;50.032;21.978;2022-11-20T09:04:23;65476.34;;;2.91;97.36
37132;BME280;23035;50.032;21.978;2022-11-20T09:09:27;65416.66;;;2.34;100.00
37132;BME280;23035;50.032;21.978;2022-11-20T09:14:32;65455.13;;;2.73;98.31
37132;BME280;23035;50.032;21.978;2022-11-20T09:19:38;65496.69;;;3.12;98.22
37132;BME280;23035;50.032;21.978;2022-11-20T09:24:46;65517.47;;;3.32;90.18
37132;BME280;23035;50.032;21.978;2022-11-20T09:29:50;65402.91;;;2.23;100.00
37132;BME280;23035;50.032;21.978;2022-11-20T09:34:56;65475.91;;;2.93;97.64
37132;BME280;23035;50.032;21.978;2022-11-20T09:40:05;65508.53;;;3.26;87.40
37132;BME280;23035;50.032;21.978;2022-11-20T09:45:21;65446.78;;;2.70;94.20
37132;BME280;23035;50.032;21.978;2022-11-20T09:50:31;65356.38;;;1.73;100.00
37132;BME280;23035;50.032;21.978;2022-11-20T09:55:37;65367.13;;;1.86;100.00
37132;BME280;23035;50.032;21.978;2022-11-20T10:00:52;65312.81;;;1.34;100.00
37132;BME280;23035;50.032;21.978;2022-11-20T10:06:04;65551.06;;;3.64;97.90
37132;BME280;23035;50.032;21.978;2022-11-20T10:11:17;65490.28;;;3.06;98.87
37132;BME280;23035;50.032;21.978;2022-11-20T10:16:37;65385.75;;;2.04;100.00
37132;BME280;23035;50.032;21.978;2022-11-20T10:21:57;65352.09;;;1.82;100.00
37132;BME280;23035;50.032;21.978;2022-11-20T10:27:37;65314.41;;;1.36;100.00
37132;BME280;23035;50.032;21.978;2022-11-20T10:32:47;65440.81;;;2.62;100.00
37132;BME280;23035;50.032;21.978;2022-11-20T10:37:55;65434.34;;;2.53;100.00
37132;BME280;23035;50.032;21.978;2022-11-20T10:43:03;65470.56;;;2.87;100.00
37132;BME280;23035;50.032;21.978;2022-11-20T10:48:15;65467.03;;;2.89;100.00
37132;BME280;23035;50.032;21.978;2022-11-20T10:53:33;65475.56;;;2.97;100.00
37132;BME280;23035;50.032;21.978;2022-11-20T10:58:52;65390.56;;;2.09;100.00
37132;BME280;23035;50.032;21.978;2022-11-20T11:03:59;65360.31;;;1.82;100.00
37132;BME280;23035;50.032;21.978;2022-11-20T11:09:11;65429.53;;;2.48;100.00
37132;BME280;23035;50.032;21.978;2022-11-20T11:14:18;65403.34;;;2.21;100.00
37132;BME280;23035;50.032;21.978;2022-11-20T11:19:23;65316.66;;;1.40;100.00
37132;BME280;23035;50.032;21.978;2022-11-20T11:24:30;65312.28;;;1.34;100.00
37132;BME280;23035;50.032;21.978;2022-11-20T11:29:49;65299.63;;;1.24;100.00
37132;BME280;23035;50.032;21.978;2022-11-20T11:35:00;65355.81;;;1.85;100.00
37132;BME280;23035;50.032;21.978;2022-11-20T11:40:11;65499.91;;;3.15;100.00
37132;BME280;23035;50.032;21.978;2022-11-20T11:45:32;65528.66;;;3.43;100.00
37132;BME280;23035;50.032;21.978;2022-11-20T11:50:51;65462.13;;;2.82;100.00
37132;BME280;23035;50.032;21.978;2022-11-20T11:56:03;65658.50;;;4.72;95.23
37132;BME280;23035;50.032;21.978;2022-11-20T12:01:30;65737.84;;;5.42;87.18
37132;BME280;23035;50.032;21.978;2022-11-20T12:06:39;65677.84;;;4.80;90.37
37132;BME280;23035;50.032;21.978;2022-11-20T12:11:52;65636.97;;;4.46;94.66
37132;BME280;23035;50.032;21.978;2022-11-20T12:17:03;65657.25;;;4.66;92.22
37132;BME280;23035;50.032;21.978;2022-11-20T12:22:34;65717.03;;;5.23;90.47
37132;BME280;23035;50.032;21.978;2022-11-20T12:28:03;65717.47;;;5.21;85.33
37132;BME280;23035;50.032;21.978;2022-11-20T12:33:24;65677.00;;;4.84;88.56
37132;BME280;23035;50.032;21.978;2022-11-20T12:38:47;65556.41;;;3.69;97.79
37132;BME280;23035;50.032;21.978;2022-11-20T12:44:06;65484.34;;;2.98;100.00
37132;BME280;23035;50.032;21.978;2022-11-20T12:49:39;65461.06;;;2.81;100.00
37132;BME280;23035;50.032;21.978;2022-11-20T13:00:18;65438.25;;;2.62;100.00
37132;BME280;23035;50.032;21.978;2022-11-20T13:05:31;65535.16;;;3.52;100.00
37132;BME280;23035;50.032;21.978;2022-11-20T13:10:45;65413.13;;;2.35;100.00
37132;BME280;23035;50.032;21.978;2022-11-20T13:15:55;65383.19;;;2.04;100.00
37132;BME280;23035;50.032;21.978;2022-11-20T13:21:01;65384.69;;;2.03;100.00
37132;BME280;23035;50.032;21.978;2022-11-20T13:26:16;65339.63;;;1.65;100.00
37132;BME280;23035;50.032;21.978;2022-11-20T13:31:29;65396.53;;;2.17;100.00
37132;BME280;23035;50.032;21.978;2022-11-20T13:36:35;65536.56;;;3.48;100.00
37132;BME280;23035;50.032;21.978;2022-11-20T13:41:39;65469.59;;;2.89;100.00
37132;BME280;23035;50.032;21.978;2022-11-20T13:46:46;65477.69;;;2.99;100.00
37132;BME280;23035;50.032;21.978;2022-11-20T13:51:51;65415.06;;;2.32;100.00
37132;BME280;23035;50.032;21.978;2022-11-20T13:57:08;65416.56;;;2.31;100.00
37132;BME280;23035;50.032;21.978;2022-11-20T14:02:20;65272.91;;;0.96;100.00
37132;BME280;23035;50.032;21.978;2022-11-20T14:07:32;65278.66;;;0.99;100.00
37132;BME280;23035;50.032;21.978;2022-11-20T14:12:40;65250.66;;;0.77;100.00
37132;BME280;23035;50.032;21.978;2022-11-20T14:17:47;65214.09;;;0.45;100.00
37132;BME280;23035;50.032;21.978;2022-11-20T14:22:52;65203.66;;;0.40;100.00
37132;BME280;23035;50.032;21.978;2022-11-20T14:28:00;65287.38;;;1.12;100.00
37132;BME280;23035;50.032;21.978;2022-11-20T14:33:11;65384.50;;;1.98;100.00
37132;BME280;23035;50.032;21.978;2022-11-20T14:38:17;65341.56;;;1.62;100.00
37132;BME280;23035;50.032;21.978;2022-11-20T14:43:24;65252.91;;;0.82;100.00
37132;BME280;23035;50.032;21.978;2022-11-20T14:48:33;65350.28;;;1.75;100.00
37132;BME280;23035;50.032;21.978;2022-11-20T14:53:41;65233.22;;;0.63;100.00
37132;BME280;23035;50.032;21.978;2022-11-20T14:58:55;65307.06;;;1.31;100.00
37132;BME280;23035;50.032;21.978;2022-11-20T15:04:09;65300.50;;;1.20;100.00
37132;BME280;23035;50.032;21.978;2022-11-20T15:09:35;65180.50;;;0.10;100.00
37132;BME280;23035;50.032;21.978;2022-11-20T15:14:49;65228.88;;;0.56;100.00
37132;BME280;23035;50.032;21.978;2022-11-20T15:19:55;65301.75;;;1.26;100.00
37132;BME280;23035;50.032;21.978;2022-11-20T15:24:59;65362.34;;;1.82;100.00
37132;BME280;23035;50.032;21.978;2022-11-20T15:30:12;65351.25;;;1.73;100.00
37132;BME280;23035;50.032;21.978;2022-11-20T15:35:21;65424.75;;;2.44;100.00
37132;BME280;23035;50.032;21.978;2022-11-20T15:40:25;65422.00;;;2.39;100.00
37132;BME280;23035;50.032;21.978;2022-11-20T15:45:31;65368.81;;;1.90;100.00
37132;BME280;23035;50.032;21.978;2022-11-20T15:50:42;65284.09;;;1.07;100.00
37132;BME280;23035;50.032;21.978;2022-11-20T15:55:47;65348.16;;;1.73;100.00
37132;BME280;23035;50.032;21.978;2022-11-20T16:00:52;65410.81;;;2.28;100.00
37132;BME280;23035;50.032;21.978;2022-11-20T16:05:58;65444.47;;;2.63;100.00
37132;BME280;23035;50.032;21.978;2022-11-20T16:11:02;65425.72;;;2.42;100.00
37132;BME280;23035;50.032;21.978;2022-11-20T16:16:11;65303.25;;;1.25;100.00
37132;BME280;23035;50.032;21.978;2022-11-20T16:21:23;65270.78;;;0.94;100.00
37132;BME280;23035;50.032;21.978;2022-11-20T16:26:33;65384.16;;;2.03;100.00
37132;BME280;23035;50.032;21.978;2022-11-20T16:31:42;65421.84;;;2.48;100.00
37132;BME280;23035;50.032;21.978;2022-11-20T16:36:48;65468.88;;;2.83;100.00
37132;BME280;23035;50.032;21.978;2022-11-20T16:41:52;65456.81;;;2.77;100.00
37132;BME280;23035;50.032;21.978;2022-11-20T16:46:58;65452.56;;;2.73;100.00
37132;BME280;23035;50.032;21.978;2022-11-20T16:52:04;65503.53;;;3.16;100.00
37132;BME280;23035;50.032;21.978;2022-11-20T16:57:08;65481.97;;;3.03;100.00
37132;BME280;23035;50.032;21.978;2022-11-20T17:02:12;65467.47;;;2.87;100.00
37132;BME280;23035;50.032;21.978;2022-11-20T17:07:18;65484.44;;;3.01;100.00
37132;BME280;23035;50.032;21.978;2022-11-20T17:12:22;65545.19;;;3.59;100.00
37132;BME280;23035;50.032;21.978;2022-11-20T17:17:26;65486.66;;;3.05;100.00
37132;BME280;23035;50.032;21.978;2022-11-20T17:22:33;65370.00;;;1.94;100.00
37132;BME280;23035;50.032;21.978;2022-11-20T17:27:37;65408.78;;;2.28;100.00
37132;BME280;23035;50.032;21.978;2022-11-20T17:32:42;65407.59;;;2.25;100.00
37132;BME280;23035;50.032;21.978;2022-11-20T17:37:49;65292.81;;;1.20;100.00
37132;BME280;23035;50.032;21.978;2022-11-20T17:42:54;65271.94;;;0.98;100.00
37132;BME280;23035;50.032;21.978;2022-11-20T17:47:58;65254.94;;;0.81;100.00
37132;BME280;23035;50.032;21.978;2022-11-20T17:53:03;65202.16;;;0.28;100.00
37132;BME280;23035;50.032;21.978;2022-11-20T17:58:13;65191.53;;;0.18;100.00
37132;BME280;23035;50.032;21.978;2022-11-20T18:03:17;65202.91;;;0.34;100.00
37132;BME280;23035;50.032;21.978;2022-11-20T18:08:26;65251.19;;;0.78;100.00
37132;BME280;23035;50.032;21.978;2022-11-20T18:13:30;65266.22;;;0.95;100.00
37132;BME280;23035;50.032;21.978;2022-11-20T18:18:55;65235.88;;;0.66;100.00
37132;BME280;23035;50.032;21.978;2022-11-20T18:24:01;65225.16;;;0.53;100.00
37132;BME280;23035;50.032;21.978;2022-11-20T18:29:05;65232.59;;;0.60;100.00
37132;BME280;23035;50.032;21.978;2022-11-20T18:34:09;65313.03;;;1.39;100.00
37132;BME280;23035;50.032;21.978;2022-11-20T18:39:17;65331.66;;;1.57;100.00
37132;BME280;23035;50.032;21.978;2022-11-20T18:44:21;65333.06;;;1.54;100.00
37132;BME280;23035;50.032;21.978;2022-11-20T18:49:45;65390.66;;;2.11;100.00
37132;BME280;23035;50.032;21.978;2022-11-20T18:54:54;65322.41;;;1.43;100.00
37132;BME280;23035;50.032;21.978;2022-11-20T18:59:58;65273.03;;;0.99;100.00
37132;BME280;23035;50.032;21.978;2022-11-20T19:05:10;65313.44;;;1.37;100.00
37132;BME280;23035;50.032;21.978;2022-11-20T19:10:18;65231.94;;;0.57;100.00
37132;BME280;23035;50.032;21.978;2022-11-20T19:15:22;65342.84;;;1.68;100.00
37132;BME280;23035;50.032;21.978;2022-11-20T19:20:27;65309.63;;;1.31;100.00
37132;BME280;23035;50.032;21.978;2022-11-20T19:25:32;65294.31;;;1.19;100.00
37132;BME280;23035;50.032;21.978;2022-11-20T19:30:40;65260.78;;;0.87;100.00
37132;BME280;23035;50.032;21.978;2022-11-20T19:35:44;65237.72;;;0.60;100.00
37132;BME280;23035;50.032;21.978;2022-11-20T19:40:52;65296.97;;;1.22;100.00
37132;BME280;23035;50.032;21.978;2022-11-20T19:45:56;65352.31;;;1.75;100.00
37132;BME280;23035;50.032;21.978;2022-11-20T19:51:07;65410.28;;;2.27;100.00
37132;BME280;23035;50.032;21.978;2022-11-20T19:56:13;65491.56;;;3.12;100.00
37132;BME280;23035;50.032;21.978;2022-11-20T20:01:18;65468.00;;;2.87;100.00
37132;BME280;23035;50.032;21.978;2022-11-20T20:06:24;65516.41;;;3.31;100.00
37132;BME280;23035;50.032;21.978;2022-11-20T20:11:31;65436.56;;;2.57;100.00
37132;BME280;23035;50.032;21.978;2022-11-20T20:16:36;65457.25;;;2.75;100.00
37132;BME280;23035;50.032;21.978;2022-11-20T20:21:41;65440.19;;;2.58;100.00
37132;BME280;23035;50.032;21.978;2022-11-20T20:26:46;65431.56;;;2.48;100.00
37132;BME280;23035;50.032;21.978;2022-11-20T20:31:50;65385.66;;;2.01;100.00
37132;BME280;23035;50.032;21.978;2022-11-20T20:36:55;65283.22;;;1.11;100.00
37132;BME280;23035;50.032;21.978;2022-11-20T20:42:00;65288.34;;;1.11;100.00
37132;BME280;23035;50.032;21.978;2022-11-20T20:47:04;65314.41;;;1.36;100.00
37132;BME280;23035;50.032;21.978;2022-11-20T20:52:09;65355.00;;;1.77;100.00
37132;BME280;23035;50.032;21.978;2022-11-20T20:57:15;65408.25;;;2.28;100.00
37132;BME280;23035;50.032;21.978;2022-11-20T21:02:19;65381.06;;;2.02;100.00
37132;BME280;23035;50.032;21.978;2022-11-20T21:07:23;65372.03;;;1.93;100.00
37132;BME280;23035;50.032;21.978;2022-11-20T21:12:29;65375.09;;;1.94;100.00
37132;BME280;23035;50.032;21.978;2022-11-20T21:17:33;65352.22;;;1.72;100.00
37132;BME280;23035;50.032;21.978;2022-11-20T21:22:37;65361.28;;;1.81;100.00
37132;BME280;23035;50.032;21.978;2022-11-20T21:27:43;65383.72;;;2.05;100.00
37132;BME280;23035;50.032;21.978;2022-11-20T21:32:47;65388.63;;;2.12;100.00
37132;BME280;23035;50.032;21.978;2022-11-20T21:37:51;65336.44;;;1.62;100.00
37132;BME280;23035;50.032;21.978;2022-11-20T21:42:56;65357.75;;;1.82;100.00
37132;BME280;23035;50.032;21.978;2022-11-20T21:48:00;65353.81;;;1.73;100.00
37132;BME280;23035;50.032;21.978;2022-11-20T21:53:04;65268.13;;;0.92;100.00
37132;BME280;23035;50.032;21.978;2022-11-20T21:58:09;65276.66;;;1.00;100.00
37132;BME280;23035;50.032;21.978;2022-11-20T22:03:13;65269.81;;;0.96;100.00
37132;BME280;23035;50.032;21.978;2022-11-20T22:08:18;65284.31;;;1.12;100.00
37132;BME280;23035;50.032;21.978;2022-11-20T22:13:24;65333.69;;;1.57;100.00
37132;BME280;23035;50.032;21.978;2022-11-20T22:18:47;65177.94;;;0.10;100.00
37132;BME280;23035;50.032;21.978;2022-11-20T22:23:52;65221.44;;;0.49;100.00
37132;BME280;23035;50.032;21.978;2022-11-20T22:28:57;65262.81;;;0.86;100.00
37132;BME280;23035;50.032;21.978;2022-11-20T22:34:02;65192.59;;;0.19;100.00
37132;BME280;23035;50.032;21.978;2022-11-20T22:39:06;65252.81;;;0.79;100.00
37132;BME280;23035;50.032;21.978;2022-11-20T22:44:13;65237.19;;;0.60;100.00
37132;BME280;23035;50.032;21.978;2022-11-20T22:49:18;65246.00;;;0.75;100.00
37132;BME280;23035;50.032;21.978;2022-11-20T22:54:22;65266.72;;;0.95;100.00
37132;BME280;23035;50.032;21.978;2022-11-20T22:59:27;65201.31;;;0.33;100.00
37132;BME280;23035;50.032;21.978;2022-11-20T23:04:31;65245.34;;;0.72;100.00
37132;BME280;23035;50.032;21.978;2022-11-20T23:09:35;65230.88;;;0.56;100.00
37132;BME280;23035;50.032;21.978;2022-11-20T23:14:41;65318.56;;;1.37;100.00
37132;BME280;23035;50.032;21.978;2022-11-20T23:19:45;65282.19;;;1.10;100.00
37132;BME280;23035;50.032;21.978;2022-11-20T23:24:49;65263.44;;;0.90;100.00
37132;BME280;23035;50.032;21.978;2022-11-20T23:29:54;65224.94;;;0.48;100.00
37132;BME280;23035;50.032;21.978;2022-11-20T23:35:00;65340.59;;;1.63;100.00
37132;BME280;23035;50.032;21.978;2022-11-20T23:40:05;65166.03;;;-0.06;100.00
37132;BME280;23035;50.032;21.978;2022-11-20T23:45:11;65211.53;;;0.45;100.00
37132;BME280;23035;50.032;21.978;2022-11-20T23:50:15;65264.06;;;0.93;100.00
37132;BME280;23035;50.032;21.978;2022-11-20T23:55:19;65207.50;;;0.34;100.00
